createdAt,value
2023-01-20T00:01:48.250Z,99504.06
2023-01-20T00:04:20.001Z,99505.72
2023-01-20T00:06:49.241Z,99512.66
2023-01-20T00:09:19.161Z,99508.03
2023-01-20T00:11:47.650Z,99507.19
2023-01-20T00:14:16.680Z,99507.38
2023-01-20T00:16:45.012Z,99514.28
2023-01-20T00:19:14.785Z,99515.13
2023-01-20T00:21:44.937Z,99512.81
2023-01-20T00:24:13.260Z,99514.47
2023-01-20T00:26:41.666Z,99514.13
2023-01-20T00:29:10.501Z,99520.41
2023-01-20T00:31:38.970Z,99515.94
2023-01-20T00:34:07.419Z,99515.94
2023-01-20T00:36:35.688Z,99510.00
2023-01-20T00:39:07.051Z,99516.13
2023-01-20T00:41:36.292Z,99515.63
2023-01-20T00:44:04.615Z,99521.56
2023-01-20T00:46:43.385Z,99519.09
2023-01-20T00:49:12.081Z,99527.19
2023-01-20T00:51:40.372Z,99525.53
2023-01-20T00:54:11.410Z,99522.44
2023-01-20T00:56:39.656Z,99526.88
2023-01-20T00:59:07.855Z,99525.06
2023-01-20T01:01:36.130Z,99537.63
2023-01-20T01:04:04.684Z,99529.88
2023-01-20T01:06:32.978Z,99539.44
2023-01-20T01:09:01.281Z,99530.03
2023-01-20T01:11:31.031Z,99531.34
2023-01-20T01:13:59.363Z,99538.63
2023-01-20T01:16:28.157Z,99531.50
2023-01-20T01:18:56.521Z,99533.34
2023-01-20T01:21:24.965Z,99546.53
2023-01-20T01:23:54.554Z,99547.34
2023-01-20T01:26:23.752Z,99547.53
2023-01-20T01:28:53.573Z,99544.06
2023-01-20T01:31:23.143Z,99547.69
2023-01-20T01:33:51.624Z,99555.44
2023-01-20T01:36:19.939Z,99560.72
2023-01-20T01:38:58.149Z,99561.22
2023-01-20T01:41:29.083Z,99559.56
2023-01-20T01:44:06.828Z,99558.06
2023-01-20T01:46:35.435Z,99556.25
2023-01-20T01:49:07.831Z,99569.63
2023-01-20T01:51:39.982Z,99568.63
2023-01-20T01:54:14.778Z,99560.88
2023-01-20T01:56:45.456Z,99573.09
2023-01-20T01:59:16.622Z,99578.53
2023-01-20T02:01:49.936Z,99573.44
2023-01-20T02:04:24.864Z,99582.16
2023-01-20T02:06:58.110Z,99582.16
2023-01-20T02:09:28.187Z,99579.53
2023-01-20T02:12:01.419Z,99580.34
2023-01-20T02:14:37.427Z,99578.03
2023-01-20T02:17:14.671Z,99583.81
2023-01-20T02:20:31.019Z,99581.00
2023-01-20T02:23:10.871Z,99590.75
2023-01-20T02:26:13.261Z,99591.56
2023-01-20T02:29:06.002Z,99593.38
2023-01-20T02:32:02.428Z,99590.56
2023-01-20T02:34:34.228Z,99592.41
2023-01-20T02:37:12.028Z,99590.75
2023-01-20T02:39:46.167Z,99596.19
2023-01-20T02:42:20.688Z,99595.53
2023-01-20T02:44:55.399Z,99600.66
2023-01-20T02:47:32.602Z,99610.22
2023-01-20T02:50:08.484Z,99614.84
2023-01-20T02:52:42.417Z,99607.91
2023-01-20T02:55:24.629Z,99610.53
2023-01-20T02:58:01.581Z,99614.84
2023-01-20T03:00:34.356Z,99613.19
2023-01-20T03:03:10.168Z,99617.00
2023-01-20T03:05:43.940Z,99623.28
2023-01-20T03:08:24.023Z,99625.91
2023-01-20T03:10:54.806Z,99632.84
2023-01-20T03:13:28.714Z,99634.47
2023-01-20T03:16:01.621Z,99636.78
2023-01-20T03:18:33.713Z,99644.53
2023-01-20T03:21:20.738Z,99650.31
2023-01-20T03:23:52.861Z,99657.91
2023-01-20T03:26:23.915Z,99658.34
2023-01-20T03:28:52.203Z,99663.47
2023-01-20T03:31:25.463Z,99660.00
2023-01-20T03:34:01.696Z,99652.09
2023-01-20T03:36:32.912Z,99670.06
2023-01-20T03:39:02.284Z,99666.44
2023-01-20T03:41:40.036Z,99675.84
2023-01-20T03:44:13.737Z,99672.38
2023-01-20T03:46:47.430Z,99682.13
2023-01-20T03:49:28.578Z,99680.47
2023-01-20T03:52:04.480Z,99679.31
2023-01-20T03:55:01.143Z,99679.31
2023-01-20T03:57:37.457Z,99689.88
2023-01-20T04:00:08.686Z,99682.13
2023-01-20T04:02:39.354Z,99694.34
2023-01-20T04:05:10.995Z,99701.25
2023-01-20T04:07:41.890Z,99691.16
2023-01-20T04:10:18.543Z,99695.47
2023-01-20T04:12:46.953Z,99698.91
2023-01-20T04:15:16.030Z,99714.44
2023-01-20T04:17:44.640Z,99704.69
2023-01-20T04:20:17.898Z,99711.63
2023-01-20T04:22:52.156Z,99717.91
2023-01-20T04:25:26.125Z,99724.00
2023-01-20T04:27:54.494Z,99727.63
2023-01-20T04:30:25.089Z,99735.56
2023-01-20T04:32:53.524Z,99726.16
2023-01-20T04:35:23.649Z,99729.63
2023-01-20T04:37:53.811Z,99739.34
2023-01-20T04:40:40.763Z,99744.81
2023-01-20T04:43:10.239Z,99741.34
2023-01-20T04:45:38.506Z,99739.88
2023-01-20T04:48:10.976Z,99745.16
2023-01-20T04:50:41.985Z,99752.41
2023-01-20T04:53:13.562Z,99754.91
2023-01-20T04:55:42.444Z,99756.53
2023-01-20T04:58:11.316Z,99761.00
2023-01-20T05:00:42.436Z,99769.56
2023-01-20T05:03:11.808Z,99773.19
2023-01-20T05:05:42.058Z,99770.53
2023-01-20T05:08:10.454Z,99768.72
2023-01-20T05:10:38.839Z,99778.47
2023-01-20T05:13:07.152Z,99776.84
2023-01-20T05:15:50.277Z,99789.84
2023-01-20T05:18:18.788Z,99780.47
2023-01-20T05:20:54.640Z,99789.69
2023-01-20T05:23:22.900Z,99799.28
2023-01-20T05:25:54.389Z,99801.09
2023-01-20T05:28:23.352Z,99798.44
2023-01-20T05:30:52.272Z,99804.56
2023-01-20T05:33:20.642Z,99807.19
2023-01-20T05:35:49.031Z,99812.63
2023-01-20T05:38:20.048Z,99812.47
2023-01-20T05:40:48.301Z,99818.41
2023-01-20T05:43:16.614Z,99818.75
2023-01-20T05:45:46.861Z,99820.72
2023-01-20T05:48:15.501Z,99829.31
2023-01-20T05:50:45.208Z,99835.25
2023-01-20T05:53:13.884Z,99841.38
2023-01-20T05:55:43.671Z,99840.72
2023-01-20T05:58:13.260Z,99846.16
2023-01-20T06:00:41.625Z,99849.94
2023-01-20T06:03:09.927Z,99854.06
2023-01-20T06:05:38.114Z,99860.34
2023-01-20T06:08:06.915Z,99861.66
2023-01-20T06:10:35.197Z,99868.75
2023-01-20T06:13:05.038Z,99872.06
2023-01-20T06:15:33.444Z,99874.88
2023-01-20T06:18:01.648Z,99880.63
2023-01-20T06:20:30.504Z,99882.47
2023-01-20T06:22:58.953Z,99888.91
2023-01-20T06:25:27.369Z,99895.00
2023-01-20T06:27:55.584Z,99895.84
2023-01-20T06:30:26.573Z,99900.28
2023-01-20T06:32:57.975Z,99895.84
2023-01-20T06:35:26.256Z,99912.31
2023-01-20T06:37:58.910Z,99911.53
2023-01-20T06:40:27.802Z,99920.25
2023-01-20T06:42:56.027Z,99916.81
2023-01-20T06:45:25.968Z,99930.81
2023-01-20T06:47:54.138Z,99936.59
2023-01-20T06:50:22.447Z,99942.19
2023-01-20T06:52:50.702Z,99945.34
2023-01-20T06:55:19.026Z,99948.66
2023-01-20T06:57:47.586Z,99954.59
2023-01-20T07:00:18.146Z,99963.03
2023-01-20T07:02:49.757Z,99964.50
2023-01-20T07:05:18.005Z,99966.16
2023-01-20T07:07:47.029Z,99975.25
2023-01-20T07:10:16.901Z,99977.59
2023-01-20T07:12:45.101Z,99982.72
2023-01-20T07:15:14.065Z,99987.81
2023-01-20T07:17:42.467Z,99997.22
2023-01-20T07:20:13.722Z,99997.88
2023-01-20T07:22:42.179Z,100003.00
2023-01-20T07:25:13.943Z,100005.00
2023-01-20T07:27:42.642Z,100019.53
2023-01-20T07:30:15.461Z,100023.16
2023-01-20T07:32:45.729Z,100028.97
2023-01-20T07:35:15.873Z,100040.16
2023-01-20T07:37:45.352Z,100042.00
2023-01-20T07:40:14.653Z,100048.94
2023-01-20T07:42:44.439Z,100043.31
2023-01-20T07:45:13.317Z,100055.03
2023-01-20T07:47:43.358Z,100058.66
2023-01-20T07:50:12.463Z,100060.47
2023-01-20T07:52:42.317Z,100065.44
2023-01-20T07:55:12.078Z,100070.41
2023-01-20T07:57:40.746Z,100075.34
2023-01-20T08:00:13.264Z,100083.13
2023-01-20T08:02:42.516Z,100083.63
2023-01-20T08:05:10.969Z,100092.22
2023-01-20T08:07:39.249Z,100084.31
2023-01-20T08:10:09.996Z,100096.69
2023-01-20T08:12:42.432Z,100097.00
2023-01-20T08:15:12.048Z,100115.34
2023-01-20T08:17:41.176Z,100121.47
2023-01-20T08:20:11.233Z,100122.44
2023-01-20T08:22:39.449Z,100126.75
2023-01-20T08:25:10.341Z,100126.59
2023-01-20T08:27:38.767Z,100138.00
2023-01-20T08:30:08.181Z,100139.50
2023-01-20T08:32:42.364Z,100139.50
2023-01-20T08:35:10.999Z,100143.91
2023-01-20T08:37:39.478Z,100151.50
2023-01-20T08:40:11.330Z,100152.81
2023-01-20T08:42:43.119Z,100153.00
2023-01-20T08:45:11.778Z,100159.59
2023-01-20T08:47:46.128Z,100167.66
2023-01-20T08:50:16.052Z,100172.78
2023-01-20T08:52:44.591Z,100189.16
2023-01-20T08:55:14.657Z,100188.81
2023-01-20T08:57:44.331Z,100193.81
2023-01-20T09:00:14.160Z,100197.47
2023-01-20T09:02:42.294Z,100200.59
2023-01-20T09:05:11.492Z,100207.09
2023-01-20T09:07:39.732Z,100205.28
2023-01-20T09:10:08.975Z,100215.53
2023-01-20T09:12:39.782Z,100214.56
2023-01-20T09:15:09.240Z,100219.84
2023-01-20T09:17:37.546Z,100224.94
2023-01-20T09:20:06.642Z,100232.72
2023-01-20T09:22:36.217Z,100233.38
2023-01-20T09:25:04.496Z,100237.31
2023-01-20T09:27:33.747Z,100238.66
2023-01-20T09:30:05.108Z,100240.94
2023-01-20T09:32:35.633Z,100251.50
2023-01-20T09:35:03.862Z,100250.69
2023-01-20T09:37:49.455Z,100265.22
2023-01-20T09:40:40.051Z,100263.38
2023-01-20T09:43:35.198Z,100265.69
2023-01-20T09:46:11.796Z,100275.28
2023-01-20T09:49:09.348Z,100273.31
2023-01-20T09:52:05.219Z,100277.91
2023-01-20T09:54:41.273Z,100286.38
2023-01-20T09:57:12.005Z,100282.41
2023-01-20T09:59:46.265Z,100287.84
2023-01-20T10:02:21.303Z,100292.81
2023-01-20T10:04:53.857Z,100302.09
2023-01-20T10:07:28.963Z,100303.75
2023-01-20T10:10:02.349Z,100309.88
2023-01-20T10:12:35.862Z,100304.59
2023-01-20T10:15:12.375Z,100313.00
2023-01-20T10:17:49.333Z,100314.69
2023-01-20T10:20:28.159Z,100326.59
2023-01-20T10:23:02.438Z,100328.78
2023-01-20T10:25:37.891Z,100332.44
2023-01-20T10:28:13.204Z,100332.97
2023-01-20T10:30:41.726Z,100337.28
2023-01-20T10:33:13.893Z,100347.25
2023-01-20T10:35:45.858Z,100346.59
2023-01-20T10:38:22.717Z,100352.25
2023-01-20T10:40:57.057Z,100352.78
2023-01-20T10:43:25.595Z,100356.75
2023-01-20T10:46:07.975Z,100355.75
2023-01-20T10:49:06.803Z,100366.53
2023-01-20T10:51:44.773Z,100371.53
2023-01-20T10:54:27.538Z,100374.50
2023-01-20T10:56:58.225Z,100380.47
2023-01-20T10:59:32.437Z,100382.81
2023-01-20T11:02:12.034Z,100382.66
2023-01-20T11:04:45.925Z,100384.63
2023-01-20T11:07:18.617Z,100381.81
2023-01-20T11:09:48.882Z,100393.25
2023-01-20T11:12:20.092Z,100396.56
2023-01-20T11:14:48.918Z,100408.97
2023-01-20T11:17:20.601Z,100407.31
2023-01-20T11:19:53.362Z,100419.56
2023-01-20T11:22:29.327Z,100416.75
2023-01-20T11:25:00.576Z,100417.59
2023-01-20T11:27:33.220Z,100431.00
2023-01-20T11:30:09.251Z,100431.50
2023-01-20T11:32:40.230Z,100437.44
2023-01-20T11:35:25.413Z,100437.13
2023-01-20T11:37:54.514Z,100440.78
2023-01-20T11:40:27.831Z,100438.63
2023-01-20T11:42:56.716Z,100448.91
2023-01-20T11:45:32.733Z,100452.72
2023-01-20T11:51:53.236Z,100463.13
2023-01-20T11:54:25.911Z,100462.09
2023-01-20T11:56:57.653Z,100463.22
2023-01-20T11:59:29.813Z,100469.50
2023-01-20T12:02:03.054Z,100472.00
2023-01-20T12:04:59.139Z,100473.00
2023-01-20T12:07:39.072Z,100481.44
2023-01-20T12:10:18.935Z,100483.41
2023-01-20T12:12:54.095Z,100488.53
2023-01-20T12:15:24.821Z,100494.81
2023-01-20T12:17:58.758Z,100489.38
2023-01-20T12:20:45.672Z,100512.69
2023-01-20T12:23:32.372Z,100507.72
2023-01-20T12:26:03.573Z,100511.56
2023-01-20T12:28:46.199Z,100527.00
2023-01-20T12:31:20.559Z,100522.38
2023-01-20T12:37:41.501Z,100534.63
2023-01-20T12:40:24.004Z,100539.72
2023-01-20T12:43:22.557Z,100539.56
2023-01-20T12:46:02.875Z,100547.38
2023-01-20T12:48:42.870Z,100547.53
2023-01-20T12:51:29.779Z,100549.34
2023-01-20T12:54:23.396Z,100554.47
2023-01-20T12:57:02.321Z,100558.94
2023-01-20T12:59:45.753Z,100560.75
2023-01-20T13:02:44.766Z,100563.56
2023-01-20T13:05:30.263Z,100570.53
2023-01-20T13:08:12.026Z,100571.06
2023-01-20T13:10:51.483Z,100580.28
2023-01-20T13:37:31.703Z,100620.84
2023-01-20T13:40:00.830Z,100613.53
2023-01-20T13:42:56.545Z,100629.63
2023-01-20T13:45:29.440Z,100637.72
2023-01-20T13:48:06.653Z,100639.19
2023-01-20T13:50:36.793Z,100652.56
2023-01-20T13:53:16.591Z,100639.94
2023-01-20T13:55:53.674Z,100662.34
2023-01-20T13:58:25.298Z,100657.34
2023-01-20T14:00:55.782Z,100664.16
2023-01-20T14:03:29.270Z,100669.97
2023-01-20T14:06:12.882Z,100664.00
2023-01-20T14:08:46.363Z,100674.34
2023-01-20T14:11:15.491Z,100680.34
2023-01-20T14:13:52.941Z,100682.69
2023-01-20T14:16:27.178Z,100697.06
2023-01-20T14:18:58.113Z,100710.59
2023-01-20T14:21:28.484Z,100716.66
2023-01-20T14:23:59.172Z,100719.06
2023-01-20T14:26:29.470Z,100721.66
2023-01-20T14:29:01.232Z,100713.78
2023-01-20T14:31:40.548Z,100724.97
2023-01-20T14:34:24.657Z,100733.50
2023-01-20T14:36:53.871Z,100737.56
2023-01-20T14:39:24.981Z,100746.41
2023-01-20T14:41:54.546Z,100747.13
2023-01-20T14:44:25.198Z,100748.16
2023-01-20T14:46:55.463Z,100753.50
2023-01-20T14:49:27.755Z,100757.03
2023-01-20T14:51:56.845Z,100757.88
2023-01-20T14:54:38.170Z,100764.31
2023-01-20T14:57:35.774Z,100775.06
2023-01-20T15:00:16.264Z,100769.97
2023-01-20T15:03:01.343Z,100784.28
2023-01-20T15:05:44.345Z,100785.44
2023-01-20T15:08:26.439Z,100796.13
2023-01-20T15:11:34.013Z,100794.44
2023-01-20T15:14:10.794Z,100805.13
2023-01-20T15:16:47.595Z,100806.94
2023-01-20T15:19:46.284Z,100820.97
2023-01-20T15:22:23.140Z,100828.84
2023-01-20T15:24:52.330Z,100834.53
2023-01-20T15:27:29.101Z,100837.81
2023-01-20T15:30:13.951Z,100849.91
2023-01-20T15:32:43.245Z,100850.69
2023-01-20T15:35:14.905Z,100853.84
2023-01-20T15:37:47.161Z,100863.94
2023-01-20T15:40:18.357Z,100862.69
2023-01-20T15:42:52.193Z,100868.22
2023-01-20T15:45:20.851Z,100875.56
2023-01-20T15:47:50.608Z,100884.00
2023-01-20T15:50:21.683Z,100895.75
2023-01-20T15:52:50.706Z,100904.16
2023-01-20T15:55:20.439Z,100897.75
2023-01-20T15:57:53.573Z,100919.06
2023-01-20T16:00:28.691Z,100916.97
2023-01-20T16:02:56.967Z,100919.38
2023-01-20T16:05:25.392Z,100929.38
2023-01-20T16:07:53.885Z,100940.03
2023-01-20T16:10:22.244Z,100935.13
2023-01-20T16:12:50.587Z,100946.97
2023-01-20T16:15:20.493Z,100953.25
2023-01-20T16:17:51.028Z,100966.19
2023-01-20T16:20:24.489Z,100971.94
2023-01-20T16:22:53.147Z,100969.91
2023-01-20T16:25:24.785Z,100977.22
2023-01-20T16:27:53.168Z,100979.16
2023-01-20T16:30:24.646Z,100984.66
2023-01-20T16:32:53.088Z,100988.13
2023-01-20T16:35:23.664Z,101000.34
2023-01-20T16:37:53.374Z,101001.19
2023-01-20T16:40:24.744Z,101008.97
2023-01-20T16:42:57.978Z,101016.59
2023-01-20T16:45:30.450Z,101019.09
2023-01-20T16:47:58.779Z,101026.63
2023-01-20T16:50:28.597Z,101028.31
2023-01-20T16:52:57.187Z,101030.13
2023-01-20T16:55:28.340Z,101041.47
2023-01-20T16:57:57.451Z,101043.41
2023-01-20T17:00:27.444Z,101055.13
2023-01-20T17:02:55.989Z,101056.91
2023-01-20T17:05:25.845Z,101059.53
2023-01-20T17:07:55.428Z,101075.22
2023-01-20T17:10:23.781Z,101075.94
2023-01-20T17:12:53.690Z,101085.41
2023-01-20T17:15:22.614Z,101087.91
2023-01-20T17:17:54.710Z,101088.75
2023-01-20T17:20:25.275Z,101095.44
2023-01-20T17:22:55.515Z,101112.56
2023-01-20T17:25:23.844Z,101116.63
2023-01-20T17:27:52.168Z,101113.72
2023-01-20T17:30:20.491Z,101128.09
2023-01-20T17:32:49.532Z,101130.38
2023-01-20T17:35:19.672Z,101148.31
2023-01-20T17:37:49.159Z,101140.19
2023-01-20T17:40:17.999Z,101147.84
2023-01-20T17:42:46.803Z,101152.28
2023-01-20T17:45:15.421Z,101159.22
2023-01-20T17:47:43.724Z,101157.53
2023-01-20T17:50:12.646Z,101168.81
2023-01-20T17:52:43.368Z,101166.41
2023-01-20T17:55:12.481Z,101176.09
2023-01-20T17:57:40.715Z,101184.47
2023-01-20T18:00:11.086Z,101187.22
2023-01-20T18:02:39.446Z,101189.03
2023-01-20T18:05:08.452Z,101196.81
2023-01-20T18:07:36.831Z,101190.97
2023-01-20T18:10:06.924Z,101197.88
2023-01-20T18:12:35.303Z,101210.81
2023-01-20T18:15:04.433Z,101206.50
2023-01-20T18:17:34.522Z,101222.44
2023-01-20T18:20:02.808Z,101221.72
2023-01-20T18:22:31.163Z,101226.50
2023-01-20T18:24:59.625Z,101232.13
2023-01-20T18:27:30.028Z,101235.25
2023-01-20T18:29:58.352Z,101241.56
2023-01-20T18:32:26.719Z,101246.59
2023-01-20T18:34:55.100Z,101247.66
2023-01-20T18:37:23.743Z,101256.53
2023-01-20T18:39:53.404Z,101260.44
2023-01-20T18:42:22.205Z,101262.50
2023-01-20T18:44:51.856Z,101264.63
2023-01-20T18:47:20.074Z,101286.53
2023-01-20T18:49:48.192Z,101283.28
2023-01-20T18:52:18.969Z,101285.28
2023-01-20T18:54:47.583Z,101296.06
2023-01-20T18:57:16.273Z,101294.38
2023-01-20T18:59:45.503Z,101297.56
2023-01-20T19:02:17.537Z,101301.50
2023-01-20T19:04:46.008Z,101300.88
2023-01-20T19:07:14.345Z,101304.91
2023-01-20T19:09:42.535Z,101305.47
2023-01-20T19:12:10.838Z,101322.44
2023-01-20T19:14:39.168Z,101325.41
2023-01-20T19:17:12.272Z,101324.16
2023-01-20T19:19:46.173Z,101325.00
2023-01-20T19:22:14.496Z,101329.19
2023-01-20T19:24:43.097Z,101328.16
2023-01-20T19:27:11.715Z,101339.41
2023-01-20T19:29:41.532Z,101343.19
2023-01-20T19:32:17.499Z,101352.06
2023-01-20T19:34:47.743Z,101365.41
2023-01-20T19:37:16.591Z,101374.16
2023-01-20T19:39:45.776Z,101379.41
2023-01-20T19:42:14.522Z,101386.03
2023-01-20T19:44:42.747Z,101375.16
2023-01-20T19:47:11.953Z,101387.38
2023-01-20T19:49:40.452Z,101391.16
2023-01-20T19:52:12.335Z,101387.13
2023-01-20T19:54:42.197Z,101397.13
2023-01-20T19:57:10.413Z,101398.22
2023-01-20T19:59:41.660Z,101398.03
2023-01-20T20:02:10.720Z,101393.34
2023-01-20T20:04:39.027Z,101406.41
2023-01-20T20:07:07.687Z,101417.66
2023-01-20T20:09:38.129Z,101414.94
2023-01-20T20:12:07.909Z,101422.81
2023-01-20T20:14:36.279Z,101433.66
2023-01-20T20:17:05.593Z,101439.88
2023-01-20T20:19:34.115Z,101445.88
2023-01-20T20:22:02.344Z,101455.44
2023-01-20T20:24:30.709Z,101467.66
2023-01-20T20:27:00.540Z,101474.63
2023-01-20T20:29:29.481Z,101481.34
2023-01-20T20:31:57.880Z,101482.09
2023-01-20T20:34:26.281Z,101489.88
2023-01-20T20:36:55.016Z,101489.63
2023-01-20T20:39:23.908Z,101497.22
2023-01-20T20:41:52.383Z,101502.25
2023-01-20T20:44:22.567Z,101512.69
2023-01-20T20:46:52.407Z,101514.38
2023-01-20T20:49:20.727Z,101517.94
2023-01-20T20:51:49.771Z,101526.56
2023-01-20T20:54:19.444Z,101519.63
2023-01-20T20:56:47.727Z,101532.66
2023-01-20T20:59:16.117Z,101539.72
2023-01-20T21:01:46.403Z,101543.31
2023-01-20T21:04:15.889Z,101535.84
2023-01-20T21:06:44.118Z,101551.44
2023-01-20T21:09:12.522Z,101554.16
2023-01-20T21:11:43.058Z,101561.53
2023-01-20T21:14:11.621Z,101564.38
2023-01-20T21:16:40.152Z,101567.84
2023-01-20T21:19:09.874Z,101583.34
2023-01-20T21:21:38.057Z,101582.06
2023-01-20T21:24:11.053Z,101583.41
2023-01-20T21:26:39.301Z,101586.38
2023-01-20T21:29:07.536Z,101587.09
2023-01-20T21:31:35.864Z,101604.13
2023-01-20T21:34:04.851Z,101614.47
2023-01-20T21:36:41.512Z,101614.97
2023-01-20T21:39:14.326Z,101620.88
2023-01-20T21:41:44.522Z,101611.06
2023-01-20T21:44:33.081Z,101632.09
2023-01-20T21:47:03.069Z,101637.16
2023-01-20T21:49:48.826Z,101639.44
2023-01-20T21:52:45.620Z,101646.06
2023-01-20T21:55:16.067Z,101650.28
2023-01-20T21:57:51.068Z,101648.28
2023-01-20T22:00:21.258Z,101657.63
2023-01-20T22:02:49.960Z,101659.84
2023-01-20T22:05:18.701Z,101662.03
2023-01-20T22:07:49.146Z,101669.72
2023-01-20T22:10:19.050Z,101670.34
2023-01-20T22:12:47.671Z,101667.06
2023-01-20T22:15:16.033Z,101681.00
2023-01-20T22:17:45.464Z,101680.16
2023-01-20T22:20:14.364Z,101688.78
2023-01-20T22:22:42.787Z,101688.78
2023-01-20T22:25:12.591Z,101698.28
2023-01-20T22:27:40.765Z,101697.34
2023-01-20T22:30:10.368Z,101696.34
2023-01-20T22:32:38.550Z,101698.78
2023-01-20T22:35:07.482Z,101706.69
2023-01-20T22:37:35.930Z,101712.31
2023-01-20T22:40:06.368Z,101720.66
2023-01-20T22:42:36.316Z,101722.44
2023-01-20T22:45:05.214Z,101726.03
2023-01-20T22:47:33.890Z,101740.25
2023-01-20T22:50:02.125Z,101738.81
2023-01-20T22:52:30.578Z,101749.38
2023-01-20T22:54:59.437Z,101753.06
2023-01-20T22:57:27.618Z,101760.53
2023-01-20T22:59:57.294Z,101766.16
2023-01-20T23:02:25.591Z,101770.78
2023-01-20T23:04:53.981Z,101781.88
2023-01-20T23:07:22.179Z,101791.78
2023-01-20T23:09:50.758Z,101799.13
2023-01-20T23:12:23.945Z,101799.34
2023-01-20T23:15:01.329Z,101798.63
2023-01-20T23:17:35.979Z,101799.34
2023-01-20T23:20:05.060Z,101797.34
2023-01-20T23:22:33.463Z,101808.63
2023-01-20T23:25:01.643Z,101813.06
2023-01-20T23:27:30.034Z,101814.09
2023-01-20T23:29:58.504Z,101816.63
2023-01-20T23:32:26.872Z,101818.53
2023-01-20T23:34:57.036Z,101820.53
2023-01-20T23:37:25.718Z,101820.66
2023-01-20T23:39:54.349Z,101822.94
2023-01-20T23:42:22.584Z,101823.69
2023-01-20T23:44:50.881Z,101830.44
2023-01-20T23:47:19.213Z,101828.66
2023-01-20T23:49:49.010Z,101831.59
2023-01-20T23:52:19.383Z,101836.47
2023-01-20T23:54:47.501Z,101835.19
2023-01-20T23:57:17.103Z,101846.47
2023-01-20T23:59:45.640Z,101854.66
